Главная страница
METAR-TAF:

METAR-TAF

Аэропорты :

Турсбю, Швеция

широта: 60-09-17N, долгота: 12-59-40E, высота над уровнем моря: 120 м

Текущие метеонаблюдения

Эта сводка был подготовлена 12 минут назад, в 18:50 UTC
Ветер 3 Узел переменных направлений
Температура 0°C
Влажность 80%
Давление 999 hPa
Видимость 10 км и более
Сплошная облачность на высоте 1900 фута

METAR: ESST 281850Z VRB03KT 9999 OVC019 M00/M03 Q0999

Время: 20:02 (19:02 UTC)


TAF: отсутствует

Метеонаблюдения и прогнозы для более 4000 аэропортов (сводки METAR и TAF).

Имеющиеся станции представлены на карте желтыми и красными точками.

Чтобы увидеть название станции, наведите на нее мышь.

Затем щелкните, чтобы увидеть метеонаблюдения и метеопрогнозы.

Управление картой: чтобы увеличить масштаб, щелкните зеленые кнопки с черным крестиком; чтобы уменьшить масштаб, щелкните зеленую кнопку с тире; для просмотра соседних карт щелкайте зеленые стрелки.


METAR-TAF: